sensor_id;sensor_type;location;lat;lon;timestamp;P1;durP1;ratioP1;P2;durP2;ratioP2
23676;SDS011;31493;49.058;12.190;2022-08-21T00:03:19;21.25;;;15.07;;
23676;SDS011;31493;49.058;12.190;2022-08-21T00:08:19;19.90;;;13.70;;
23676;SDS011;31493;49.058;12.190;2022-08-21T00:10:48;18.88;;;15.52;;
23676;SDS011;31493;49.058;12.190;2022-08-21T00:13:18;21.05;;;15.25;;
23676;SDS011;31493;49.058;12.190;2022-08-21T00:15:48;24.08;;;17.80;;
23676;SDS011;31493;49.058;12.190;2022-08-21T00:18:17;19.67;;;15.68;;
23676;SDS011;31493;49.058;12.190;2022-08-21T00:20:47;26.65;;;18.17;;
23676;SDS011;31493;49.058;12.190;2022-08-21T00:23:19;26.42;;;16.88;;
23676;SDS011;31493;49.058;12.190;2022-08-21T00:25:48;22.45;;;15.93;;
23676;SDS011;31493;49.058;12.190;2022-08-21T00:28:17;20.67;;;16.60;;
23676;SDS011;31493;49.058;12.190;2022-08-21T00:30:47;17.20;;;13.90;;
23676;SDS011;31493;49.058;12.190;2022-08-21T00:33:16;18.70;;;14.70;;
23676;SDS011;31493;49.058;12.190;2022-08-21T00:38:14;20.63;;;13.55;;
23676;SDS011;31493;49.058;12.190;2022-08-21T00:40:46;19.70;;;13.45;;
23676;SDS011;31493;49.058;12.190;2022-08-21T00:43:18;13.07;;;11.80;;
23676;SDS011;31493;49.058;12.190;2022-08-21T00:45:50;16.92;;;12.90;;
23676;SDS011;31493;49.058;12.190;2022-08-21T00:48:19;25.23;;;13.85;;
23676;SDS011;31493;49.058;12.190;2022-08-21T00:50:50;14.65;;;11.70;;
23676;SDS011;31493;49.058;12.190;2022-08-21T00:53:22;45.58;;;14.23;;
23676;SDS011;31493;49.058;12.190;2022-08-21T00:55:56;27.58;;;13.85;;
23676;SDS011;31493;49.058;12.190;2022-08-21T00:58:25;18.70;;;13.43;;
23676;SDS011;31493;49.058;12.190;2022-08-21T01:00:56;18.92;;;14.80;;
23676;SDS011;31493;49.058;12.190;2022-08-21T01:03:27;22.88;;;16.08;;
23676;SDS011;31493;49.058;12.190;2022-08-21T01:08:25;19.60;;;15.13;;
23676;SDS011;31493;49.058;12.190;2022-08-21T01:10:58;21.63;;;15.80;;
23676;SDS011;31493;49.058;12.190;2022-08-21T01:13:29;18.77;;;13.95;;
23676;SDS011;31493;49.058;12.190;2022-08-21T01:16:03;163.50;;;22.50;;
23676;SDS011;31493;49.058;12.190;2022-08-21T01:18:36;264.65;;;21.52;;
23676;SDS011;31493;49.058;12.190;2022-08-21T01:21:10;221.43;;;31.17;;
23676;SDS011;31493;49.058;12.190;2022-08-21T01:23:41;50.05;;;20.70;;
23676;SDS011;31493;49.058;12.190;2022-08-21T01:26:12;77.60;;;23.55;;
23676;SDS011;31493;49.058;12.190;2022-08-21T01:28:44;272.10;;;24.05;;
23676;SDS011;31493;49.058;12.190;2022-08-21T01:31:17;79.63;;;24.15;;
23676;SDS011;31493;49.058;12.190;2022-08-21T01:33:50;148.73;;;27.42;;
23676;SDS011;31493;49.058;12.190;2022-08-21T01:36:23;248.77;;;27.58;;
23676;SDS011;31493;49.058;12.190;2022-08-21T01:38:52;139.60;;;23.67;;
23676;SDS011;31493;49.058;12.190;2022-08-21T01:41:21;268.67;;;31.23;;
23676;SDS011;31493;49.058;12.190;2022-08-21T01:43:51;305.17;;;30.73;;
23676;SDS011;31493;49.058;12.190;2022-08-21T01:46:20;194.88;;;25.92;;
23676;SDS011;31493;49.058;12.190;2022-08-21T01:51:17;227.57;;;29.13;;
23676;SDS011;31493;49.058;12.190;2022-08-21T01:56:17;349.52;;;28.77;;
23676;SDS011;31493;49.058;12.190;2022-08-21T01:58:47;245.85;;;26.92;;
23676;SDS011;31493;49.058;12.190;2022-08-21T02:01:16;255.57;;;28.17;;
23676;SDS011;31493;49.058;12.190;2022-08-21T02:06:14;160.73;;;23.48;;
23676;SDS011;31493;49.058;12.190;2022-08-21T02:08:44;168.77;;;21.83;;
23676;SDS011;31493;49.058;12.190;2022-08-21T02:11:15;310.70;;;22.73;;
23676;SDS011;31493;49.058;12.190;2022-08-21T02:13:44;278.70;;;22.58;;
23676;SDS011;31493;49.058;12.190;2022-08-21T02:18:42;250.60;;;26.38;;
23676;SDS011;31493;49.058;12.190;2022-08-21T02:21:11;50.63;;;18.92;;
23676;SDS011;31493;49.058;12.190;2022-08-21T02:26:09;463.65;;;29.55;;
23676;SDS011;31493;49.058;12.190;2022-08-21T02:28:41;453.60;;;28.70;;
23676;SDS011;31493;49.058;12.190;2022-08-21T02:31:10;285.52;;;22.42;;
23676;SDS011;31493;49.058;12.190;2022-08-21T02:33:39;389.90;;;25.67;;
23676;SDS011;31493;49.058;12.190;2022-08-21T02:38:39;362.42;;;29.13;;
23676;SDS011;31493;49.058;12.190;2022-08-21T02:41:09;391.95;;;27.05;;
23676;SDS011;31493;49.058;12.190;2022-08-21T02:43:43;547.40;;;35.00;;
23676;SDS011;31493;49.058;12.190;2022-08-21T02:46:14;461.15;;;35.92;;
23676;SDS011;31493;49.058;12.190;2022-08-21T02:48:46;383.88;;;25.08;;
23676;SDS011;31493;49.058;12.190;2022-08-21T02:53:45;344.05;;;31.23;;
23676;SDS011;31493;49.058;12.190;2022-08-21T02:56:16;290.92;;;24.85;;
23676;SDS011;31493;49.058;12.190;2022-08-21T02:58:51;504.85;;;25.88;;
23676;SDS011;31493;49.058;12.190;2022-08-21T03:01:20;549.65;;;26.17;;
23676;SDS011;31493;49.058;12.190;2022-08-21T03:06:20;466.80;;;24.05;;
23676;SDS011;31493;49.058;12.190;2022-08-21T03:08:50;471.13;;;23.27;;
23676;SDS011;31493;49.058;12.190;2022-08-21T03:11:20;306.02;;;20.98;;
23676;SDS011;31493;49.058;12.190;2022-08-21T03:13:51;361.67;;;24.05;;
23676;SDS011;31493;49.058;12.190;2022-08-21T03:16:20;452.15;;;24.02;;
23676;SDS011;31493;49.058;12.190;2022-08-21T03:18:49;333.92;;;25.63;;
23676;SDS011;31493;49.058;12.190;2022-08-21T03:21:18;369.77;;;27.88;;
23676;SDS011;31493;49.058;12.190;2022-08-21T03:26:16;478.95;;;29.02;;
23676;SDS011;31493;49.058;12.190;2022-08-21T03:28:45;264.80;;;29.63;;
23676;SDS011;31493;49.058;12.190;2022-08-21T03:31:16;273.48;;;23.23;;
23676;SDS011;31493;49.058;12.190;2022-08-21T03:33:47;451.77;;;25.15;;
23676;SDS011;31493;49.058;12.190;2022-08-21T03:36:16;104.60;;;18.55;;
23676;SDS011;31493;49.058;12.190;2022-08-21T03:38:45;249.65;;;20.80;;
23676;SDS011;31493;49.058;12.190;2022-08-21T03:43:42;335.10;;;19.60;;
23676;SDS011;31493;49.058;12.190;2022-08-21T03:46:11;636.90;;;33.67;;
23676;SDS011;31493;49.058;12.190;2022-08-21T03:48:43;365.38;;;23.48;;
23676;SDS011;31493;49.058;12.190;2022-08-21T03:51:12;167.80;;;15.70;;
23676;SDS011;31493;49.058;12.190;2022-08-21T03:56:10;113.35;;;17.90;;
23676;SDS011;31493;49.058;12.190;2022-08-21T03:58:39;95.88;;;17.58;;
23676;SDS011;31493;49.058;12.190;2022-08-21T04:03:37;340.73;;;25.98;;
23676;SDS011;31493;49.058;12.190;2022-08-21T04:08:37;357.10;;;23.48;;
23676;SDS011;31493;49.058;12.190;2022-08-21T04:11:08;204.88;;;19.85;;
23676;SDS011;31493;49.058;12.190;2022-08-21T04:13:38;156.15;;;17.73;;
23676;SDS011;31493;49.058;12.190;2022-08-21T04:16:08;227.10;;;17.83;;
23676;SDS011;31493;49.058;12.190;2022-08-21T04:18:37;155.07;;;17.73;;
23676;SDS011;31493;49.058;12.190;2022-08-21T04:21:09;219.80;;;17.48;;
23676;SDS011;31493;49.058;12.190;2022-08-21T04:23:39;548.08;;;24.83;;
23676;SDS011;31493;49.058;12.190;2022-08-21T04:28:37;726.35;;;26.45;;
23676;SDS011;31493;49.058;12.190;2022-08-21T04:33:34;830.80;;;28.73;;
23676;SDS011;31493;49.058;12.190;2022-08-21T04:38:35;852.30;;;27.35;;
23676;SDS011;31493;49.058;12.190;2022-08-21T04:41:04;864.20;;;30.73;;
23676;SDS011;31493;49.058;12.190;2022-08-21T04:43:33;763.17;;;27.58;;
23676;SDS011;31493;49.058;12.190;2022-08-21T04:46:03;815.42;;;37.40;;
23676;SDS011;31493;49.058;12.190;2022-08-21T04:48:32;795.03;;;31.45;;
23676;SDS011;31493;49.058;12.190;2022-08-21T04:53:37;795.72;;;32.30;;
23676;SDS011;31493;49.058;12.190;2022-08-21T04:56:09;777.20;;;29.60;;
23676;SDS011;31493;49.058;12.190;2022-08-21T04:58:41;748.53;;;31.27;;
23676;SDS011;31493;49.058;12.190;2022-08-21T05:01:12;711.03;;;28.98;;
23676;SDS011;31493;49.058;12.190;2022-08-21T05:03:43;683.67;;;31.98;;
23676;SDS011;31493;49.058;12.190;2022-08-21T05:06:13;773.33;;;33.38;;
23676;SDS011;31493;49.058;12.190;2022-08-21T05:08:46;738.38;;;30.52;;
23676;SDS011;31493;49.058;12.190;2022-08-21T05:11:17;1084.57;;;38.15;;
23676;SDS011;31493;49.058;12.190;2022-08-21T05:13:47;681.40;;;33.78;;
23676;SDS011;31493;49.058;12.190;2022-08-21T05:16:16;825.33;;;40.72;;
23676;SDS011;31493;49.058;12.190;2022-08-21T05:21:14;733.83;;;37.28;;
23676;SDS011;31493;49.058;12.190;2022-08-21T05:26:14;541.83;;;35.75;;
23676;SDS011;31493;49.058;12.190;2022-08-21T05:31:11;762.15;;;37.17;;
23676;SDS011;31493;49.058;12.190;2022-08-21T05:36:09;553.42;;;29.70;;
23676;SDS011;31493;49.058;12.190;2022-08-21T05:41:09;160.18;;;23.23;;
23676;SDS011;31493;49.058;12.190;2022-08-21T05:43:38;58.42;;;21.85;;
23676;SDS011;31493;49.058;12.190;2022-08-21T05:48:36;61.60;;;20.92;;
23676;SDS011;31493;49.058;12.190;2022-08-21T05:51:06;46.55;;;21.73;;
23676;SDS011;31493;49.058;12.190;2022-08-21T05:53:36;56.75;;;22.85;;
23676;SDS011;31493;49.058;12.190;2022-08-21T05:56:10;57.20;;;26.05;;
23676;SDS011;31493;49.058;12.190;2022-08-21T05:58:40;40.10;;;20.95;;
23676;SDS011;31493;49.058;12.190;2022-08-21T06:01:09;49.40;;;24.23;;
23676;SDS011;31493;49.058;12.190;2022-08-21T06:03:40;45.63;;;23.65;;
23676;SDS011;31493;49.058;12.190;2022-08-21T06:06:09;46.20;;;24.13;;
23676;SDS011;31493;49.058;12.190;2022-08-21T06:11:10;52.47;;;22.60;;
23676;SDS011;31493;49.058;12.190;2022-08-21T06:13:38;54.90;;;25.85;;
23676;SDS011;31493;49.058;12.190;2022-08-21T06:16:08;59.40;;;24.55;;
23676;SDS011;31493;49.058;12.190;2022-08-21T06:18:39;61.33;;;26.10;;
23676;SDS011;31493;49.058;12.190;2022-08-21T06:21:08;60.53;;;25.80;;
23676;SDS011;31493;49.058;12.190;2022-08-21T06:23:38;72.28;;;27.63;;
23676;SDS011;31493;49.058;12.190;2022-08-21T06:26:11;49.65;;;25.83;;
23676;SDS011;31493;49.058;12.190;2022-08-21T06:28:42;59.20;;;26.48;;
23676;SDS011;31493;49.058;12.190;2022-08-21T06:31:12;45.10;;;24.40;;
23676;SDS011;31493;49.058;12.190;2022-08-21T06:33:43;43.35;;;25.65;;
23676;SDS011;31493;49.058;12.190;2022-08-21T06:36:12;52.03;;;25.15;;
23676;SDS011;31493;49.058;12.190;2022-08-21T06:38:41;41.67;;;23.95;;
23676;SDS011;31493;49.058;12.190;2022-08-21T06:41:14;48.15;;;24.52;;
23676;SDS011;31493;49.058;12.190;2022-08-21T06:43:42;39.80;;;25.52;;
23676;SDS011;31493;49.058;12.190;2022-08-21T06:46:12;36.10;;;23.85;;
23676;SDS011;31493;49.058;12.190;2022-08-21T19:41:24;5.97;;;4.18;;
23676;SDS011;31493;49.058;12.190;2022-08-21T19:43:54;5.03;;;3.45;;
23676;SDS011;31493;49.058;12.190;2022-08-21T19:46:25;4.18;;;3.72;;
23676;SDS011;31493;49.058;12.190;2022-08-21T19:48:53;4.43;;;3.80;;
23676;SDS011;31493;49.058;12.190;2022-08-21T19:51:22;4.70;;;4.20;;
23676;SDS011;31493;49.058;12.190;2022-08-21T19:53:50;4.60;;;4.17;;
23676;SDS011;31493;49.058;12.190;2022-08-21T19:56:20;7.43;;;3.72;;
23676;SDS011;31493;49.058;12.190;2022-08-21T19:58:49;4.18;;;3.40;;
23676;SDS011;31493;49.058;12.190;2022-08-21T20:01:17;4.93;;;3.80;;
23676;SDS011;31493;49.058;12.190;2022-08-21T20:03:46;4.50;;;4.10;;
23676;SDS011;31493;49.058;12.190;2022-08-21T20:06:14;4.22;;;3.80;;
23676;SDS011;31493;49.058;12.190;2022-08-21T20:08:42;4.30;;;3.90;;
23676;SDS011;31493;49.058;12.190;2022-08-21T20:14:06;4.47;;;3.75;;
23676;SDS011;31493;49.058;12.190;2022-08-21T20:16:34;4.30;;;3.90;;
23676;SDS011;31493;49.058;12.190;2022-08-21T20:19:02;5.97;;;4.07;;
23676;SDS011;31493;49.058;12.190;2022-08-21T20:21:30;5.57;;;4.40;;
23676;SDS011;31493;49.058;12.190;2022-08-21T20:23:57;8.10;;;4.35;;
23676;SDS011;31493;49.058;12.190;2022-08-21T20:26:25;8.40;;;4.30;;
23676;SDS011;31493;49.058;12.190;2022-08-21T20:28:53;5.03;;;4.53;;
23676;SDS011;31493;49.058;12.190;2022-08-21T20:33:49;6.78;;;4.82;;
23676;SDS011;31493;49.058;12.190;2022-08-21T20:36:17;5.70;;;5.20;;
23676;SDS011;31493;49.058;12.190;2022-08-21T20:38:45;6.57;;;5.45;;
23676;SDS011;31493;49.058;12.190;2022-08-21T20:41:13;5.97;;;4.93;;
23676;SDS011;31493;49.058;12.190;2022-08-21T20:43:41;5.97;;;5.32;;
23676;SDS011;31493;49.058;12.190;2022-08-21T20:46:09;5.85;;;5.30;;
23676;SDS011;31493;49.058;12.190;2022-08-21T20:48:37;10.15;;;5.30;;
23676;SDS011;31493;49.058;12.190;2022-08-21T20:51:06;6.38;;;5.78;;
23676;SDS011;31493;49.058;12.190;2022-08-21T20:53:40;6.13;;;5.53;;
23676;SDS011;31493;49.058;12.190;2022-08-21T20:56:12;6.90;;;5.82;;
23676;SDS011;31493;49.058;12.190;2022-08-21T20:58:46;9.25;;;5.70;;
23676;SDS011;31493;49.058;12.190;2022-08-21T21:01:27;6.68;;;5.53;;
23676;SDS011;31493;49.058;12.190;2022-08-21T21:04:00;8.07;;;5.43;;
23676;SDS011;31493;49.058;12.190;2022-08-21T21:06:37;6.45;;;5.85;;
23676;SDS011;31493;49.058;12.190;2022-08-21T21:09:07;6.28;;;5.68;;
23676;SDS011;31493;49.058;12.190;2022-08-21T21:11:42;7.35;;;5.68;;
23676;SDS011;31493;49.058;12.190;2022-08-21T21:14:13;9.98;;;5.95;;
23676;SDS011;31493;49.058;12.190;2022-08-21T21:16:47;6.70;;;5.63;;
23676;SDS011;31493;49.058;12.190;2022-08-21T21:19:19;7.93;;;6.22;;
23676;SDS011;31493;49.058;12.190;2022-08-21T21:21:58;6.88;;;6.05;;
23676;SDS011;31493;49.058;12.190;2022-08-21T21:24:30;6.35;;;5.57;;
23676;SDS011;31493;49.058;12.190;2022-08-21T21:27:02;7.05;;;5.93;;
23676;SDS011;31493;49.058;12.190;2022-08-21T21:29:38;7.45;;;5.68;;
23676;SDS011;31493;49.058;12.190;2022-08-21T21:32:08;8.05;;;5.57;;
23676;SDS011;31493;49.058;12.190;2022-08-21T21:34:36;6.47;;;5.88;;
23676;SDS011;31493;49.058;12.190;2022-08-21T21:37:06;8.32;;;5.40;;
23676;SDS011;31493;49.058;12.190;2022-08-21T21:39:40;7.93;;;5.45;;
23676;SDS011;31493;49.058;12.190;2022-08-21T21:42:13;8.57;;;5.65;;
23676;SDS011;31493;49.058;12.190;2022-08-21T21:44:53;8.23;;;5.38;;
23676;SDS011;31493;49.058;12.190;2022-08-21T21:47:33;9.38;;;5.50;;
23676;SDS011;31493;49.058;12.190;2022-08-21T21:50:17;9.43;;;5.72;;
23676;SDS011;31493;49.058;12.190;2022-08-21T21:52:56;6.60;;;5.40;;
23676;SDS011;31493;49.058;12.190;2022-08-21T21:55:36;5.40;;;4.82;;
23676;SDS011;31493;49.058;12.190;2022-08-21T21:58:22;9.52;;;5.38;;
23676;SDS011;31493;49.058;12.190;2022-08-21T22:01:02;7.30;;;5.07;;
23676;SDS011;31493;49.058;12.190;2022-08-21T22:03:37;5.97;;;5.20;;
23676;SDS011;31493;49.058;12.190;2022-08-21T22:06:16;7.57;;;5.68;;
23676;SDS011;31493;49.058;12.190;2022-08-21T22:08:56;7.45;;;5.65;;
23676;SDS011;31493;49.058;12.190;2022-08-21T22:11:30;7.57;;;5.43;;
23676;SDS011;31493;49.058;12.190;2022-08-21T22:14:07;7.30;;;5.65;;
23676;SDS011;31493;49.058;12.190;2022-08-21T22:16:38;8.77;;;5.60;;
23676;SDS011;31493;49.058;12.190;2022-08-21T22:19:18;7.07;;;5.17;;
23676;SDS011;31493;49.058;12.190;2022-08-21T22:21:51;9.63;;;5.22;;
23676;SDS011;31493;49.058;12.190;2022-08-21T22:24:31;7.35;;;5.20;;
23676;SDS011;31493;49.058;12.190;2022-08-21T22:27:03;6.40;;;5.10;;
23676;SDS011;31493;49.058;12.190;2022-08-21T22:29:41;6.05;;;5.30;;
23676;SDS011;31493;49.058;12.190;2022-08-21T22:32:10;7.18;;;5.07;;
23676;SDS011;31493;49.058;12.190;2022-08-21T22:34:54;7.30;;;5.32;;
23676;SDS011;31493;49.058;12.190;2022-08-21T22:37:32;7.10;;;4.80;;
23676;SDS011;31493;49.058;12.190;2022-08-21T22:40:00;7.05;;;4.72;;
23676;SDS011;31493;49.058;12.190;2022-08-21T22:42:28;7.93;;;4.90;;
23676;SDS011;31493;49.058;12.190;2022-08-21T22:44:57;8.13;;;5.22;;
23676;SDS011;31493;49.058;12.190;2022-08-21T22:47:29;9.57;;;4.82;;
23676;SDS011;31493;49.058;12.190;2022-08-21T22:50:02;6.72;;;4.88;;
23676;SDS011;31493;49.058;12.190;2022-08-21T22:52:33;8.88;;;5.07;;
23676;SDS011;31493;49.058;12.190;2022-08-21T22:55:15;12.32;;;5.30;;
23676;SDS011;31493;49.058;12.190;2022-08-21T22:57:47;8.82;;;5.40;;
23676;SDS011;31493;49.058;12.190;2022-08-21T23:03:01;8.10;;;5.00;;
23676;SDS011;31493;49.058;12.190;2022-08-21T23:05:32;8.27;;;4.75;;
23676;SDS011;31493;49.058;12.190;2022-08-21T23:08:12;7.13;;;4.60;;
23676;SDS011;31493;49.058;12.190;2022-08-21T23:10:43;7.00;;;4.90;;
23676;SDS011;31493;49.058;12.190;2022-08-21T23:13:12;7.50;;;4.80;;
23676;SDS011;31493;49.058;12.190;2022-08-21T23:15:41;6.07;;;4.43;;
23676;SDS011;31493;49.058;12.190;2022-08-21T23:18:15;8.48;;;4.40;;
23676;SDS011;31493;49.058;12.190;2022-08-21T23:20:52;6.80;;;4.88;;
23676;SDS011;31493;49.058;12.190;2022-08-21T23:23:24;7.25;;;4.90;;
23676;SDS011;31493;49.058;12.190;2022-08-21T23:25:59;7.55;;;4.85;;
23676;SDS011;31493;49.058;12.190;2022-08-21T23:28:44;8.60;;;5.13;;
23676;SDS011;31493;49.058;12.190;2022-08-21T23:31:25;9.05;;;4.80;;
23676;SDS011;31493;49.058;12.190;2022-08-21T23:33:59;7.05;;;4.95;;
23676;SDS011;31493;49.058;12.190;2022-08-21T23:36:32;6.93;;;4.40;;
23676;SDS011;31493;49.058;12.190;2022-08-21T23:39:35;6.10;;;4.95;;
23676;SDS011;31493;49.058;12.190;2022-08-21T23:42:15;7.00;;;4.45;;
23676;SDS011;31493;49.058;12.190;2022-08-21T23:44:53;7.18;;;4.40;;
23676;SDS011;31493;49.058;12.190;2022-08-21T23:47:32;9.05;;;4.88;;
23676;SDS011;31493;49.058;12.190;2022-08-21T23:50:11;6.07;;;4.85;;
23676;SDS011;31493;49.058;12.190;2022-08-21T23:52:45;8.00;;;4.53;;
23676;SDS011;31493;49.058;12.190;2022-08-21T23:55:22;7.78;;;4.70;;
23676;SDS011;31493;49.058;12.190;2022-08-21T23:58:00;11.27;;;4.50;;
